| time (UTC) | temp F | wind direction | speed MPH | gust MPH | rain 1hr in | rain 24hr in | rain mn in | humidity % | barometer mb |
| 20260504222458 | 78 | 206 | 2.0 | 8.0 | 0.00 | 0.00 | 0.00 | 35 | 1010.3 |
| 20260504220257 | 78 | 32 | 1.0 | 11.0 | 0.00 | 0.00 | 0.00 | 35 | 1010.5 |
| 20260504214203 | 77 | 260 | 2.0 | 8.0 | 0.00 | 0.00 | 0.00 | 38 | 1010.7 |
| 20260504213218 | 78 | 297 | 1.0 | 12.0 | 0.00 | 0.00 | 0.00 | 37 | 1010.6 |
| 20260504211109 | 76 | 269 | 3.0 | 8.0 | 0.00 | 0.00 | 0.00 | 41 | 1010.6 |
| 20260504210114 | 76 | 202 | 2.0 | 7.0 | 0.00 | 0.00 | 0.00 | 41 | 1010.7 |
| 20260504204005 | 75 | 316 | 2.0 | 6.0 | 0.00 | 0.00 | 0.00 | 43 | 1010.9 |
| 20260504203024 | 75 | 170 | 2.0 | 6.0 | 0.00 | 0.00 | 0.00 | 43 | 1010.7 |
| 20260504201957 | 76 | 226 | 2.0 | 5.0 | 0.00 | 0.00 | 0.00 | 44 | 1010.6 |
| 20260504201022 | 76 | 325 | 2.0 | 8.0 | 0.00 | 0.00 | 0.00 | 44 | 1010.6 |
| 20260504194927 | 74 | 200 | 3.0 | 8.0 | 0.00 | 0.00 | 0.00 | 45 | 1010.7 |
| 20260504192736 | 74 | 340 | 1.0 | 5.0 | 0.00 | 0.00 | 0.00 | 46 | 1010.9 |
| 20260504191800 | 73 | 296 | 2.0 | 5.0 | 0.00 | 0.00 | 0.00 | 47 | 1011.1 |
| 20260504190805 | 73 | 317 | 2.0 | 8.0 | 0.00 | 0.00 | 0.00 | 44 | 1011.1 |
| 20260504182335 | 72 | 233 | 2.0 | 10.0 | 0.00 | 0.00 | 0.00 | 48 | 1011.3 |
| 20260504181348 | 72 | 244 | 3.0 | 10.0 | 0.00 | 0.00 | 0.00 | 50 | 1011.4 |
| 20260504180338 | 72 | 248 | 2.0 | 7.0 | 0.00 | 0.00 | 0.00 | 51 | 1011.4 |
| 20260504175311 | 71 | 273 | 2.0 | 7.0 | 0.00 | 0.00 | 0.00 | 51 | 1011.5 |
| 20260504174316 | 72 | 216 | 1.0 | 5.0 | 0.00 | 0.00 | 0.00 | 50 | 1011.4 |
| 20260504173304 | 70 | 188 | 1.0 | 5.0 | 0.00 | 0.00 | 0.00 | 52 | 1011.4 |
| 20260504172323 | 70 | 147 | 1.0 | 4.0 | 0.00 | 0.00 | 0.00 | 51 | 1011.5 |
| 20260504171328 | 70 | 174 | 0.0 | 4.0 | 0.00 | 0.00 | 0.00 | 51 | 1011.5 |
| 20260504170302 | 70 | 207 | 1.0 | 4.0 | 0.00 | 0.00 | 0.00 | 52 | 1011.5 |
| 20260504150955 | 63 | 155 | 0.0 | 3.0 | 0.00 | 0.00 | 0.00 | 62 | 1011.3 |
| 20260504140913 | 56 | 39 | 0.0 | 1.0 | 0.00 | 0.00 | 0.00 | 77 | 1011.0 |
| 20260504130602 | 56 | 153 | 0.0 | 0.0 | 0.00 | 0.00 | 0.00 | 72 | 1010.2 |
| 20260504120248 | 55 | 49 | 0.0 | 1.0 | 0.00 | 0.00 | 0.00 | 75 | 1010.1 |
| 20260504110257 | 55 | 46 | 0.0 | 1.0 | 0.00 | 0.00 | 0.00 | 76 | 1010.0 |
| 20260504081539 | 59 | 49 | 0.0 | 1.0 | 0.00 | 0.00 | 0.00 | 72 | 1009.7 |
| 20260504070248 | 65 | 254 | 0.0 | 0.0 | 0.00 | 0.00 | 0.00 | 60 | 1010.0 |
| 20260504045943 | 69 | 6 | 0.0 | 3.0 | 0.00 | 0.00 | 0.00 | 55 | 1009.6 |
| 20260504042735 | 70 | 6 | 1.0 | 3.0 | 0.00 | 0.00 | 0.00 | 52 | 1009.5 |
| 20260504041741 | 70 | 350 | 1.0 | 3.0 | 0.00 | 0.00 | 0.00 | 53 | 1009.5 |
| 20260504040710 | 70 | 6 | 1.0 | 3.0 | 0.00 | 0.00 | 0.00 | 54 | 1009.4 |
| 20260504035728 | 71 | 337 | 1.0 | 3.0 | 0.00 | 0.00 | 0.00 | 53 | 1009.4 |
| 20260504034716 | 72 | 359 | 1.0 | 3.0 | 0.00 | 0.00 | 0.00 | 53 | 1009.3 |
| 20260504033703 | 73 | 354 | 1.0 | 3.0 | 0.00 | 0.00 | 0.00 | 50 | 1009.3 |
| 20260504031623 | 74 | 295 | 1.0 | 4.0 | 0.00 | 0.00 | 0.00 | 48 | 1009.2 |
| 20260504030615 | 75 | 294 | 1.0 | 3.0 | 0.00 | 0.00 | 0.00 | 47 | 1009.3 |
| 20260504025626 | 76 | 288 | 1.0 | 4.0 | 0.00 | 0.00 | 0.00 | 46 | 1009.2 |
| 20260504024649 | 76 | 328 | 1.0 | 6.0 | 0.00 | 0.00 | 0.00 | 45 | 1009.3 |
| 20260504023709 | 76 | 333 | 2.0 | 8.0 | 0.00 | 0.00 | 0.00 | 45 | 1009.2 |
| 20260504022709 | 77 | 353 | 2.0 | 8.0 | 0.00 | 0.00 | 0.00 | 44 | 1009.3 |
| 20260504021714 | 78 | 302 | 1.0 | 7.0 | 0.00 | 0.00 | 0.00 | 44 | 1009.3 |
| 20260504020656 | 78 | 290 | 3.0 | 8.0 | 0.00 | 0.00 | 0.00 | 44 | 1009.3 |
| 20260504014533 | 80 | 290 | 3.0 | 7.0 | 0.00 | 0.00 | 0.00 | 42 | 1009.4 |
| 20260504013458 | 81 | 340 | 4.0 | 9.0 | 0.00 | 0.00 | 0.00 | 41 | 1009.4 |
| 20260504012453 | 81 | 278 | 3.0 | 9.0 | 0.00 | 0.00 | 0.00 | 39 | 1009.4 |
| 20260504011509 | 82 | 306 | 3.0 | 8.0 | 0.00 | 0.00 | 0.00 | 40 | 1009.5 |
| 20260504005253 | 83 | 319 | 2.0 | 7.0 | 0.00 | 0.00 | 0.00 | 39 | 1009.7 |
| 20260504004240 | 83 | 337 | 3.0 | 7.0 | 0.00 | 0.00 | 0.00 | 38 | 1009.8 |
| 20260504003258 | 83 | 320 | 3.0 | 7.0 | 0.00 | 0.00 | 0.00 | 39 | 1009.9 |
| 20260504002304 | 82 | 294 | 3.0 | 8.0 | 0.00 | 0.00 | 0.00 | 40 | 1010.0 |
| 20260504001250 | 82 | 300 | 3.0 | 9.0 | 0.00 | 0.00 | 0.00 | 40 | 1010.1 |
| 20260504000248 | 83 | 342 | 2.0 | 9.0 | 0.00 | 0.00 | 0.00 | 41 | 1010.2 |
| 20260503235304 | 82 | 320 | 3.0 | 9.0 | 0.00 | 0.00 | 0.00 | 40 | 1010.2 |
| 20260503234312 | 83 | 300 | 3.0 | 9.0 | 0.00 | 0.00 | 0.00 | 40 | 1010.3 |
| 20260503233254 | 82 | 296 | 2.0 | 8.0 | 0.00 | 0.00 | 0.00 | 40 | 1010.4 |
| 20260503232316 | 83 | 298 | 2.0 | 8.0 | 0.00 | 0.00 | 0.00 | 41 | 1010.5 |
| 20260503230140 | 83 | 345 | 2.0 | 10.0 | 0.00 | 0.00 | 0.00 | 40 | 1010.8 |
| 20260503225106 | 81 | 301 | 4.0 | 11.0 | 0.00 | 0.00 | 0.00 | 42 | 1011.0 |
| 20260503224109 | 82 | 1 | 3.0 | 11.0 | 0.00 | 0.00 | 0.00 | 41 | 1011.1 |
| 20260503223039 | 83 | 319 | 3.0 | 9.0 | 0.00 | 0.00 | 0.00 | 40 | 1011.2 |